createdAt,value
2022-12-01T00:08:33.520Z,98022.84
2022-12-01T00:18:34.953Z,98009.44
2022-12-01T00:28:36.400Z,98001.16
2022-12-01T00:38:38.197Z,97998.38
2022-12-01T00:48:40.002Z,98008.34
2022-12-01T00:58:41.855Z,98027.69
2022-12-01T01:08:43.321Z,98032.63
2022-12-01T01:18:45.247Z,98034.25
2022-12-01T01:28:48.134Z,98033.28
2022-12-01T01:38:51.628Z,98027.75
2022-12-01T01:49:03.424Z,98032.00
2022-12-01T01:59:04.971Z,98029.56
2022-12-01T02:09:06.441Z,98022.25
2022-12-01T02:19:41.513Z,98016.72
2022-12-01T02:29:51.923Z,98013.91
2022-12-01T02:40:09.753Z,98000.94
2022-12-01T02:50:13.285Z,97998.31
2022-12-01T03:00:16.581Z,97998.88
2022-12-01T03:10:18.071Z,97993.41
2022-12-01T03:20:33.035Z,97987.28
2022-12-01T03:30:36.663Z,97987.28
2022-12-01T03:40:39.293Z,97976.97
2022-12-01T03:51:08.775Z,97963.91
2022-12-01T04:01:11.599Z,97967.22
2022-12-01T04:11:32.948Z,97976.50
2022-12-01T04:21:34.561Z,97989.16
2022-12-01T04:31:36.618Z,97982.66
2022-12-01T04:41:38.134Z,97979.34
2022-12-01T04:51:39.614Z,97976.50
2022-12-01T05:01:41.395Z,97970.00
2022-12-01T05:11:43.057Z,97981.38
2022-12-01T05:21:45.967Z,97981.06
2022-12-01T05:31:47.654Z,97998.59
2022-12-01T05:41:49.208Z,97993.00
2022-12-01T05:51:50.653Z,97989.25
2022-12-01T06:01:52.131Z,98000.69
2022-12-01T06:11:53.662Z,97995.56
2022-12-01T06:21:55.124Z,98000.91
2022-12-01T06:31:56.850Z,98009.13
2022-12-01T06:41:58.306Z,98011.53
2022-12-01T06:52:01.076Z,98013.25
2022-12-01T07:02:03.089Z,98020.03
2022-12-01T07:12:04.900Z,98024.63
2022-12-01T07:22:06.331Z,98029.28
2022-12-01T07:32:07.895Z,98029.31
2022-12-01T07:42:09.390Z,98034.91
2022-12-01T07:52:10.828Z,98028.63
2022-12-01T08:02:12.520Z,98031.50
2022-12-01T08:12:14.079Z,98030.88
2022-12-01T08:22:15.517Z,98027.25
2022-12-01T08:32:18.180Z,98039.19
2022-12-01T08:42:19.649Z,98033.16
2022-12-01T08:52:21.653Z,98036.75
2022-12-01T09:02:23.738Z,98035.38
2022-12-01T09:12:25.338Z,98034.16
2022-12-01T09:22:26.790Z,98024.59
2022-12-01T09:32:28.214Z,98026.75
2022-12-01T09:42:35.227Z,98026.22
2022-12-01T09:52:45.669Z,98024.31
2022-12-01T10:03:17.075Z,98011.88
2022-12-01T10:13:23.778Z,97998.34
2022-12-01T10:23:58.222Z,97988.53
2022-12-01T10:34:31.089Z,97988.72
2022-12-01T10:44:33.752Z,97984.94
2022-12-01T10:54:38.389Z,97987.34
2022-12-01T11:04:59.997Z,97972.38
2022-12-01T11:15:02.079Z,97963.69
2022-12-01T11:25:06.070Z,97956.56
2022-12-01T11:35:13.520Z,97952.72
2022-12-01T11:45:21.017Z,97948.41
2022-12-01T11:55:25.024Z,97949.63
2022-12-01T12:05:45.749Z,97942.03
2022-12-01T12:16:02.805Z,97946.59
2022-12-01T12:26:09.952Z,97934.41
2022-12-01T12:36:42.595Z,97932.44
2022-12-01T12:47:12.857Z,97926.25
2022-12-01T12:57:28.346Z,97931.63
2022-12-01T13:07:37.546Z,97934.31
2022-12-01T13:17:43.710Z,97934.50
2022-12-01T13:27:47.271Z,97938.63
2022-12-01T13:37:49.124Z,97935.47
2022-12-01T13:47:54.233Z,97934.28
2022-12-01T13:57:58.489Z,97932.72
2022-12-01T14:08:01.111Z,97944.28
2022-12-01T14:18:27.412Z,97930.78
2022-12-01T14:29:00.043Z,97927.56
2022-12-01T14:39:13.847Z,97932.50
2022-12-01T14:49:24.011Z,97936.47
2022-12-01T14:59:26.754Z,97942.03
2022-12-01T15:09:36.178Z,97942.19
2022-12-01T15:19:40.911Z,97935.03
2022-12-01T15:29:46.013Z,97932.97
2022-12-01T15:40:54.470Z,97937.53
2022-12-01T15:50:39.709Z,97939.91
2022-12-01T16:00:58.772Z,97931.88
2022-12-01T16:11:13.093Z,97928.78
2022-12-01T16:21:14.638Z,97930.66
2022-12-01T16:31:19.815Z,97927.56
2022-12-01T16:41:38.140Z,97922.31
2022-12-01T16:51:55.262Z,97927.38
2022-12-01T17:01:57.260Z,97929.31
2022-12-01T17:11:59.267Z,97921.00
2022-12-01T17:22:00.753Z,97935.59
2022-12-01T17:32:02.209Z,97929.75
2022-12-01T17:42:03.918Z,97928.44
2022-12-01T17:52:06.878Z,97934.06
2022-12-01T18:02:12.320Z,97941.41
2022-12-01T18:12:13.816Z,97945.63
2022-12-01T18:22:15.311Z,97957.19
2022-12-01T18:32:17.044Z,97946.56
2022-12-01T18:42:18.551Z,97947.63
2022-12-01T18:52:20.034Z,97951.00
2022-12-01T19:02:21.505Z,97948.28
2022-12-01T19:12:23.008Z,97948.38
2022-12-01T19:22:24.648Z,97942.53
2022-12-01T19:32:26.131Z,97931.84
2022-12-01T19:42:27.728Z,97929.09
2022-12-01T19:52:29.412Z,97935.69
2022-12-01T20:02:30.872Z,97942.41
2022-12-01T20:12:34.306Z,97942.41
2022-12-01T20:22:36.680Z,97949.31
2022-12-01T20:32:38.214Z,97941.69
2022-12-01T20:42:39.728Z,97945.91
2022-12-01T20:52:42.197Z,97943.47
2022-12-01T21:02:43.895Z,97942.16
2022-12-01T21:13:08.017Z,97933.84
2022-12-01T21:23:16.937Z,97940.38
2022-12-01T21:33:30.615Z,97945.91
2022-12-01T21:43:36.773Z,97939.34
2022-12-01T21:53:39.908Z,97946.41
2022-12-01T22:03:45.116Z,97941.66
2022-12-01T22:13:49.635Z,97924.94
2022-12-01T22:24:15.148Z,97926.88
2022-12-01T22:34:19.915Z,97921.50
2022-12-01T22:44:21.372Z,97916.53
2022-12-01T22:54:27.572Z,97913.19
2022-12-01T23:04:37.823Z,97905.72
2022-12-01T23:14:48.648Z,97904.03
2022-12-01T23:24:50.700Z,97900.94
2022-12-01T23:34:55.735Z,97882.31
2022-12-01T23:45:01.510Z,97872.88
2022-12-01T23:55:14.367Z,97869.66
